METAR Data
IDs: Format: Raw Decoded Include TAF

Data at: 1553 UTC 21 Sep 2018

KJKL 211453Z AUTO VRB04KT 10SM CLR 27/19 A3016 RMK AO2 SLP198 T02720194 51002
KJKL 211353Z AUTO VRB04KT 10SM CLR 25/19 A3016 RMK AO2 SLP197 T02500194
KJKL 211253Z AUTO 00000KT 10SM FEW075 23/19 A3016 RMK AO2 SLP199 T02280189
KJKL 211153Z AUTO 00000KT 10SM CLR 22/19 A3016 RMK AO2 SLP196 T02170189 10228 20211 51011
KJKL 211053Z AUTO 20003KT 10SM CLR 22/19 A3015 RMK AO2 SLP192 T02170194
KJKL 210953Z AUTO 00000KT 10SM CLR 22/19 A3014 RMK AO2 SLP189 T02170194
KJKL 210853Z AUTO VRB03KT 10SM CLR 22/19 A3012 RMK AO2 SLP183 T02220194 53003
KJKL 210753Z AUTO 00000KT 10SM CLR 22/19 A3012 RMK AO2 SLP181 T02220194
KJKL 210653Z AUTO 00000KT 10SM CLR 23/19 A3012 RMK AO2 SLP180 T02280194
KJKL 210553Z AUTO 00000KT 10SM CLR 23/20 A3011 RMK AO2 SLP180 T02280200 10278 20228 51001
KJKL 210453Z AUTO 20003KT 10SM CLR 23/20 A3011 RMK AO2 SLP180 T02330200 403220206
KJKL 210353Z AUTO 18003KT 10SM CLR 23/21 A3012 RMK AO2 SLP182 T02330206
KJKL 210253Z AUTO 00000KT 10SM CLR 24/21 A3011 RMK AO2 SLP180 T02440211 50004
KJKL 210153Z AUTO 00000KT 10SM CLR 26/21 A3011 RMK AO2 SLP182 T02610211
KJKL 210053Z AUTO 16003KT 10SM CLR 27/21 A3010 RMK AO2 SLP177 T02670206
KJKL 202353Z AUTO 16003KT 10SM CLR 27/20 A3010 RMK AO2 SLP177 T02720200 10322 20272 56002
KJKL 202253Z AUTO 00000KT 10SM CLR 29/21 A3010 RMK AO2 SLP176 T02890206
KJKL 202153Z AUTO 00000KT 10SM CLR 30/21 A3010 RMK AO2 SLP177 T03000206
KJKL 202053Z AUTO 00000KT 10SM CLR 31/19 A3011 RMK AO2 SLP177 T03110194 56012
KJKL 201953Z AUTO 00000KT 10SM FEW049 31/20 A3011 RMK AO2 SLP179 T03110200
KJKL 201853Z AUTO 30004KT 10SM FEW041 FEW049 31/21 A3012 RMK AO2 SLP183 T03110206
KJKL 201753Z AUTO VRB04KT 10SM SCT038 31/21 A3014 RMK AO2 SLP189 T03060206 10311 20206 58013
KJKL 201653Z AUTO 00000KT 10SM CLR 30/22 A3016 RMK AO2 SLP196 T03000217
KJKL 201553Z AUTO 00000KT 10SM CLR 28/21 A3018 RMK AO2 SLP202 T02830211
KJKL 201453Z AUTO VRB03KT 10SM CLR 26/21 A3018 RMK AO2 SLP203 T02610206 51015
KJKL 201353Z AUTO 00000KT 10SM CLR 24/20 A3016 RMK AO2 SLP198 T02390200
KJKL 201253Z AUTO 00000KT 10SM CLR 22/19 A3015 RMK AO2 SLP195 T02220194
KJKL 201153Z AUTO 00000KT 6SM BR CLR 21/19 A3013 RMK AO2 SLP189 T02060194 10228 20206 53017
KJKL 201053Z AUTO 00000KT 8SM CLR 21/19 A3012 RMK AO2 SLP183 T02110194
KJKL 200953Z AUTO 00000KT 10SM CLR 22/19 A3010 RMK AO2 SLP175 T02170194
KJKL 200853Z AUTO 00000KT 10SM CLR 22/20 A3008 RMK AO2 SLP170 T02170200 53002
KJKL 200753Z AUTO 20003KT 9SM CLR 22/20 A3007 RMK AO2 SLP166 T02170200
KJKL 200653Z AUTO 16003KT 10SM CLR 23/20 A3007 RMK AO2 SLP165 T02280200
KJKL 200553Z AUTO 00000KT 10SM CLR 22/21 A3008 RMK AO2 SLP168 T02220206 10267 20222 58001
KJKL 200453Z AUTO 16003KT 10SM CLR 23/21 A3008 RMK AO2 SLP169 T02330206 403110194